createdAt,value
2024-02-08T10:35:22.630Z,7.83
2024-02-08T10:40:31.442Z,9.54
2024-02-08T10:45:45.432Z,10.43
2024-02-08T10:50:51.090Z,12.92
2024-02-08T10:55:57.307Z,14.55
2024-02-08T11:01:14.346Z,16.00
2024-02-08T11:06:30.695Z,17.02
2024-02-08T11:11:33.623Z,18.81
2024-02-08T11:16:39.032Z,19.75
2024-02-08T11:21:45.290Z,20.90
2024-02-08T11:26:55.932Z,20.91
2024-02-08T11:31:57.756Z,22.35
2024-02-08T11:37:00.821Z,23.71
2024-02-08T11:42:17.354Z,24.54
2024-02-08T11:47:24.732Z,25.38
2024-02-08T11:52:26.696Z,24.94
2024-02-08T11:57:37.942Z,22.10
2024-02-08T12:02:40.207Z,20.10
2024-02-08T12:07:46.688Z,18.92
2024-02-08T12:12:54.121Z,17.72
2024-02-08T12:18:08.710Z,16.29
2024-02-08T12:23:10.360Z,15.32
2024-02-08T12:28:12.716Z,14.49
2024-02-08T12:33:14.471Z,12.75
2024-02-08T12:38:18.772Z,12.39
2024-02-08T12:43:20.950Z,11.66
2024-02-08T12:48:25.420Z,11.26
2024-02-08T12:53:26.925Z,10.89
2024-02-08T12:58:29.636Z,10.44
2024-02-08T13:03:38.461Z,10.23
2024-02-08T13:08:46.288Z,10.07
2024-02-08T13:13:49.504Z,9.84
2024-02-08T13:18:55.997Z,9.49
2024-02-08T13:23:58.049Z,9.03
2024-02-08T13:29:01.117Z,8.94
2024-02-08T13:34:03.209Z,8.57
2024-02-08T13:39:05.154Z,8.13
2024-02-08T13:44:06.793Z,7.91
2024-02-08T13:49:08.907Z,7.67
2024-02-08T13:54:13.853Z,7.36
2024-02-08T13:59:15.993Z,7.12
2024-02-08T14:04:22.226Z,6.89
2024-02-08T14:09:26.498Z,6.77
2024-02-08T14:14:41.290Z,6.63
2024-02-08T14:19:45.152Z,6.64
2024-02-08T14:24:52.791Z,6.55
2024-02-08T14:29:54.277Z,6.37
2024-02-08T14:34:59.992Z,6.24
2024-02-08T14:40:02.249Z,6.03
2024-02-08T14:45:13.029Z,5.95
2024-02-08T14:50:34.981Z,5.82
2024-02-08T14:55:36.829Z,5.67
2024-02-08T15:00:38.347Z,5.55
2024-02-08T15:05:49.789Z,5.51
2024-02-08T15:11:26.913Z,5.42
2024-02-08T15:16:34.405Z,5.39
2024-02-08T15:21:36.779Z,5.31
2024-02-08T15:26:39.214Z,5.21
2024-02-08T15:31:46.786Z,5.12
2024-02-08T15:36:50.000Z,5.03
2024-02-08T15:41:53.335Z,4.98
2024-02-08T15:46:58.104Z,4.89
2024-02-08T15:51:59.653Z,4.80
2024-02-08T15:57:08.927Z,4.73
2024-02-08T16:02:17.916Z,4.64
2024-02-08T16:07:29.268Z,4.55
2024-02-08T16:12:31.109Z,4.46
2024-02-08T16:17:32.798Z,4.37
2024-02-08T16:22:54.128Z,4.27
2024-02-08T16:28:01.472Z,4.19
2024-02-08T16:33:10.284Z,4.11
2024-02-08T16:38:17.947Z,4.01
2024-02-08T16:43:29.605Z,3.93
2024-02-08T16:48:45.953Z,3.84
2024-02-08T16:54:02.614Z,3.78
2024-02-08T16:59:10.908Z,3.69
2024-02-08T17:04:13.936Z,3.62
2024-02-08T17:09:15.467Z,3.54
2024-02-08T17:14:34.199Z,3.47
2024-02-08T17:19:36.025Z,3.39
2024-02-08T17:24:43.176Z,3.34
2024-02-08T17:29:52.050Z,3.25
2024-02-08T17:34:54.135Z,3.20
2024-02-08T17:39:57.573Z,3.14
2024-02-08T17:45:02.064Z,3.08
2024-02-08T17:50:07.329Z,3.02
2024-02-08T17:55:09.241Z,2.95
2024-02-08T18:00:13.701Z,2.88
2024-02-08T18:05:16.002Z,2.82
2024-02-08T18:10:18.607Z,2.76
2024-02-08T18:15:25.433Z,2.70
2024-02-08T18:20:31.372Z,2.66
2024-02-08T18:25:33.820Z,2.63
2024-02-08T18:30:36.837Z,2.55
2024-02-08T18:35:38.859Z,2.52
2024-02-08T18:40:40.706Z,2.46
2024-02-08T18:45:50.027Z,2.42
2024-02-08T18:50:52.037Z,2.37
2024-02-08T18:55:59.995Z,2.33
2024-02-08T19:01:01.799Z,2.27
2024-02-08T19:06:03.421Z,2.23
2024-02-08T19:11:05.200Z,2.19
2024-02-08T19:16:09.351Z,2.12
2024-02-08T19:21:15.396Z,2.12
2024-02-08T19:26:26.226Z,2.05
2024-02-08T19:31:31.453Z,2.00
2024-02-08T19:36:33.694Z,1.95
2024-02-08T19:41:35.273Z,1.92
2024-02-08T19:46:39.899Z,1.87
2024-02-08T19:51:46.245Z,1.85
2024-02-08T19:56:49.237Z,1.84
2024-02-08T20:01:50.850Z,1.82
2024-02-08T20:06:56.047Z,1.76
2024-02-08T20:11:59.756Z,1.74
2024-02-08T20:17:03.747Z,1.70
2024-02-08T20:22:13.254Z,1.66
2024-02-08T20:27:15.760Z,1.65
2024-02-08T20:32:21.129Z,1.62
2024-02-08T20:37:25.913Z,1.60
2024-02-08T20:42:30.047Z,1.56
2024-02-08T20:47:31.552Z,1.53
2024-02-08T20:52:33.913Z,1.50
2024-02-08T20:57:41.196Z,1.47
2024-02-08T21:02:42.635Z,1.45
2024-02-08T21:07:48.248Z,1.44
2024-02-08T21:12:49.761Z,1.41
2024-02-08T21:17:51.298Z,1.37
2024-02-08T21:22:53.144Z,1.37
2024-02-08T21:27:54.815Z,1.31
2024-02-08T21:32:56.636Z,1.29
2024-02-08T21:38:00.318Z,1.27
2024-02-08T21:43:11.563Z,1.24
2024-02-08T21:48:17.406Z,1.21
2024-02-08T21:53:21.730Z,1.18
2024-02-08T21:58:24.308Z,1.15
2024-02-08T22:03:28.368Z,1.13
2024-02-08T22:08:30.320Z,1.09
2024-02-08T22:13:32.029Z,1.07
2024-02-08T22:18:33.690Z,1.05
2024-02-08T22:23:37.860Z,1.02
2024-02-08T22:28:41.722Z,0.99
2024-02-08T22:33:43.827Z,0.95
2024-02-08T22:38:46.918Z,0.95
2024-02-08T22:43:48.524Z,0.92
2024-02-08T22:48:50.089Z,0.93
2024-02-08T22:53:51.892Z,0.88
2024-02-08T22:58:53.428Z,0.87
2024-02-08T23:03:56.715Z,0.84
2024-02-08T23:09:08.784Z,0.81
2024-02-08T23:14:12.318Z,0.79
2024-02-08T23:19:14.737Z,0.75
2024-02-08T23:24:19.854Z,0.72
2024-02-08T23:29:26.089Z,0.69
2024-02-08T23:34:27.889Z,0.66
2024-02-08T23:39:29.664Z,0.63
2024-02-08T23:44:31.244Z,0.62
2024-02-08T23:49:36.044Z,0.59
2024-02-08T23:54:37.653Z,0.55
2024-02-08T23:59:39.313Z,0.52
